createdAt,value
2018-12-24T00:04:59.529Z,96522.30
2018-12-24T00:10:19.129Z,96508.77
2018-12-24T00:15:37.980Z,96500.74
2018-12-24T00:20:57.201Z,96499.28
2018-12-24T00:26:16.711Z,96474.91
2018-12-24T00:31:36.139Z,96467.14
2018-12-24T00:36:54.471Z,96460.62
2018-12-24T00:42:15.915Z,96446.33
2018-12-24T00:47:31.805Z,96425.97
2018-12-24T00:52:50.891Z,96403.35
2018-12-24T00:58:10.236Z,96417.20
2018-12-24T01:03:32.499Z,96389.14
2018-12-24T01:08:51.212Z,96374.56
2018-12-24T01:14:10.650Z,96358.83
2018-12-24T01:19:31.489Z,96337.90
2018-12-24T01:24:50.278Z,96324.31
2018-12-24T01:30:09.325Z,96258.40
2018-12-24T01:35:27.875Z,96258.40
2018-12-24T01:40:46.550Z,96241.25
2018-12-24T01:46:05.422Z,96243.67
2018-12-24T01:51:24.461Z,96221.30
2018-12-24T01:56:43.037Z,96188.27
2018-12-24T02:02:02.475Z,96188.58
2018-12-24T02:07:21.379Z,96183.79
2018-12-24T02:12:42.308Z,96179.64
2018-12-24T02:17:58.582Z,96150.16
2018-12-24T02:23:17.355Z,96146.98
2018-12-24T02:28:37.396Z,96113.20
2018-12-24T02:33:55.260Z,96116.55
2018-12-24T02:39:13.890Z,96100.30
2018-12-24T02:44:32.776Z,96050.12
2018-12-24T02:49:51.626Z,96056.52
2018-12-24T02:55:10.021Z,96052.97
2018-12-24T03:00:28.205Z,96058.80
2018-12-24T03:05:47.298Z,96080.99
2018-12-24T03:11:05.707Z,96012.38
2018-12-24T03:16:24.352Z,95999.94
2018-12-24T03:21:43.345Z,96007.41
2018-12-24T03:27:02.468Z,95980.66
2018-12-24T03:32:20.823Z,95995.03
2018-12-24T03:37:39.742Z,96035.64
2018-12-24T04:43:51.957Z,96312.42
2018-12-24T04:49:10.431Z,96315.77
2018-12-24T04:54:29.548Z,96325.67
2018-12-24T04:59:47.741Z,96356.07
2018-12-24T05:05:06.755Z,96354.88
2018-12-24T05:10:25.498Z,96386.59
2018-12-24T05:15:44.740Z,96431.03
2018-12-24T05:21:03.786Z,96433.52
